sensor_id;sensor_type;location;lat;lon;timestamp;P1;durP1;ratioP1;P2;durP2;ratioP2
43042;SDS011;28667;50.758;6.096;2023-06-22T00:02:00;5.88;;;4.10;;
43042;SDS011;28667;50.758;6.096;2023-06-22T00:04:26;4.25;;;3.63;;
43042;SDS011;28667;50.758;6.096;2023-06-22T00:06:52;6.90;;;4.97;;
43042;SDS011;28667;50.758;6.096;2023-06-22T00:09:18;5.10;;;3.88;;
43042;SDS011;28667;50.758;6.096;2023-06-22T00:11:43;9.95;;;5.07;;
43042;SDS011;28667;50.758;6.096;2023-06-22T00:14:09;6.45;;;3.92;;
43042;SDS011;28667;50.758;6.096;2023-06-22T00:16:35;4.63;;;3.22;;
43042;SDS011;28667;50.758;6.096;2023-06-22T00:19:00;5.13;;;4.25;;
43042;SDS011;28667;50.758;6.096;2023-06-22T00:21:27;7.05;;;4.22;;
43042;SDS011;28667;50.758;6.096;2023-06-22T00:23:53;4.05;;;3.50;;
43042;SDS011;28667;50.758;6.096;2023-06-22T00:26:19;4.18;;;2.63;;
43042;SDS011;28667;50.758;6.096;2023-06-22T00:28:46;3.42;;;2.78;;
43042;SDS011;28667;50.758;6.096;2023-06-22T00:31:12;6.25;;;4.03;;
43042;SDS011;28667;50.758;6.096;2023-06-22T00:33:37;7.45;;;4.93;;
43042;SDS011;28667;50.758;6.096;2023-06-22T00:36:04;5.43;;;3.78;;
43042;SDS011;28667;50.758;6.096;2023-06-22T00:38:32;5.70;;;3.67;;
43042;SDS011;28667;50.758;6.096;2023-06-22T00:41:00;2.65;;;2.42;;
43042;SDS011;28667;50.758;6.096;2023-06-22T00:43:26;2.90;;;2.58;;
43042;SDS011;28667;50.758;6.096;2023-06-22T00:45:51;4.60;;;3.40;;
43042;SDS011;28667;50.758;6.096;2023-06-22T00:48:17;3.13;;;2.40;;
43042;SDS011;28667;50.758;6.096;2023-06-22T00:50:46;3.33;;;2.00;;
43042;SDS011;28667;50.758;6.096;2023-06-22T00:53:13;2.42;;;2.17;;
43042;SDS011;28667;50.758;6.096;2023-06-22T00:55:43;3.03;;;2.17;;
43042;SDS011;28667;50.758;6.096;2023-06-22T00:58:10;2.22;;;2.03;;
43042;SDS011;28667;50.758;6.096;2023-06-22T01:00:37;6.57;;;4.00;;
43042;SDS011;28667;50.758;6.096;2023-06-22T01:03:04;4.30;;;3.30;;
43042;SDS011;28667;50.758;6.096;2023-06-22T01:05:34;9.07;;;3.55;;
43042;SDS011;28667;50.758;6.096;2023-06-22T01:08:23;2.88;;;2.55;;
43042;SDS011;28667;50.758;6.096;2023-06-22T01:11:15;2.70;;;2.15;;
43042;SDS011;28667;50.758;6.096;2023-06-22T01:13:48;2.85;;;2.22;;
43042;SDS011;28667;50.758;6.096;2023-06-22T01:16:27;3.72;;;3.10;;
43042;SDS011;28667;50.758;6.096;2023-06-22T01:18:57;2.42;;;2.10;;
43042;SDS011;28667;50.758;6.096;2023-06-22T01:21:28;4.03;;;2.85;;
43042;SDS011;28667;50.758;6.096;2023-06-22T01:29:57;3.75;;;2.50;;
43042;SDS011;28667;50.758;6.096;2023-06-22T01:32:29;2.40;;;2.17;;
43042;SDS011;28667;50.758;6.096;2023-06-22T01:35:00;2.53;;;2.20;;
43042;SDS011;28667;50.758;6.096;2023-06-22T01:37:30;2.53;;;2.33;;
43042;SDS011;28667;50.758;6.096;2023-06-22T01:39:57;3.35;;;2.47;;
43042;SDS011;28667;50.758;6.096;2023-06-22T01:42:24;2.10;;;1.88;;
43042;SDS011;28667;50.758;6.096;2023-06-22T01:44:52;1.95;;;1.75;;
43042;SDS011;28667;50.758;6.096;2023-06-22T01:47:19;2.88;;;2.47;;
43042;SDS011;28667;50.758;6.096;2023-06-22T01:49:46;3.17;;;2.50;;
43042;SDS011;28667;50.758;6.096;2023-06-22T01:52:13;2.20;;;2.00;;
43042;SDS011;28667;50.758;6.096;2023-06-22T01:54:39;2.85;;;2.22;;
43042;SDS011;28667;50.758;6.096;2023-06-22T01:57:05;2.63;;;1.77;;
43042;SDS011;28667;50.758;6.096;2023-06-22T01:59:32;3.25;;;2.17;;
43042;SDS011;28667;50.758;6.096;2023-06-22T02:02:04;3.35;;;2.35;;
43042;SDS011;28667;50.758;6.096;2023-06-22T02:04:56;2.60;;;2.40;;
43042;SDS011;28667;50.758;6.096;2023-06-22T02:07:31;2.40;;;2.20;;
43042;SDS011;28667;50.758;6.096;2023-06-22T02:10:02;2.78;;;2.53;;
43042;SDS011;28667;50.758;6.096;2023-06-22T02:12:31;2.10;;;1.85;;
43042;SDS011;28667;50.758;6.096;2023-06-22T02:14:58;3.67;;;2.40;;
43042;SDS011;28667;50.758;6.096;2023-06-22T02:17:26;3.17;;;2.33;;
43042;SDS011;28667;50.758;6.096;2023-06-22T02:19:51;2.25;;;2.05;;
43042;SDS011;28667;50.758;6.096;2023-06-22T02:22:17;2.45;;;2.20;;
43042;SDS011;28667;50.758;6.096;2023-06-22T02:24:43;2.45;;;2.20;;
43042;SDS011;28667;50.758;6.096;2023-06-22T02:27:09;1.92;;;1.83;;
43042;SDS011;28667;50.758;6.096;2023-06-22T02:29:36;2.55;;;2.20;;
43042;SDS011;28667;50.758;6.096;2023-06-22T02:32:02;2.20;;;1.63;;
43042;SDS011;28667;50.758;6.096;2023-06-22T02:34:29;6.03;;;2.00;;
43042;SDS011;28667;50.758;6.096;2023-06-22T02:36:54;2.35;;;1.80;;
43042;SDS011;28667;50.758;6.096;2023-06-22T02:39:21;1.60;;;1.50;;
43042;SDS011;28667;50.758;6.096;2023-06-22T02:41:51;5.03;;;3.53;;
43042;SDS011;28667;50.758;6.096;2023-06-22T02:44:18;6.05;;;4.00;;
43042;SDS011;28667;50.758;6.096;2023-06-22T02:46:47;4.65;;;3.42;;
43042;SDS011;28667;50.758;6.096;2023-06-22T02:49:14;4.50;;;3.45;;
43042;SDS011;28667;50.758;6.096;2023-06-22T02:51:42;6.07;;;3.92;;
43042;SDS011;28667;50.758;6.096;2023-06-22T02:54:11;5.43;;;3.80;;
43042;SDS011;28667;50.758;6.096;2023-06-22T02:56:37;6.28;;;4.30;;
43042;SDS011;28667;50.758;6.096;2023-06-22T02:59:05;8.20;;;4.68;;
43042;SDS011;28667;50.758;6.096;2023-06-22T03:01:36;5.32;;;4.20;;
43042;SDS011;28667;50.758;6.096;2023-06-22T03:04:10;5.88;;;3.95;;
43042;SDS011;28667;50.758;6.096;2023-06-22T03:06:36;8.38;;;3.55;;
43042;SDS011;28667;50.758;6.096;2023-06-22T03:09:03;6.20;;;4.18;;
43042;SDS011;28667;50.758;6.096;2023-06-22T03:11:31;4.88;;;3.45;;
43042;SDS011;28667;50.758;6.096;2023-06-22T03:13:58;5.63;;;3.55;;
43042;SDS011;28667;50.758;6.096;2023-06-22T03:16:25;6.50;;;3.92;;
43042;SDS011;28667;50.758;6.096;2023-06-22T03:18:51;8.43;;;5.13;;
43042;SDS011;28667;50.758;6.096;2023-06-22T03:21:19;6.90;;;4.00;;
43042;SDS011;28667;50.758;6.096;2023-06-22T03:23:45;6.47;;;4.35;;
43042;SDS011;28667;50.758;6.096;2023-06-22T03:26:11;8.57;;;4.30;;
43042;SDS011;28667;50.758;6.096;2023-06-22T03:28:37;4.15;;;3.75;;
43042;SDS011;28667;50.758;6.096;2023-06-22T03:31:03;4.80;;;3.28;;
43042;SDS011;28667;50.758;6.096;2023-06-22T03:33:32;8.35;;;3.67;;
43042;SDS011;28667;50.758;6.096;2023-06-22T03:35:57;5.75;;;3.55;;
43042;SDS011;28667;50.758;6.096;2023-06-22T03:38:23;3.88;;;2.45;;
43042;SDS011;28667;50.758;6.096;2023-06-22T03:40:53;3.83;;;2.90;;
43042;SDS011;28667;50.758;6.096;2023-06-22T03:43:19;7.40;;;3.85;;
43042;SDS011;28667;50.758;6.096;2023-06-22T03:45:45;3.15;;;2.50;;
43042;SDS011;28667;50.758;6.096;2023-06-22T03:48:12;2.83;;;2.42;;
43042;SDS011;28667;50.758;6.096;2023-06-22T03:50:37;3.72;;;2.10;;
43042;SDS011;28667;50.758;6.096;2023-06-22T03:53:03;4.10;;;3.00;;
43042;SDS011;28667;50.758;6.096;2023-06-22T03:55:29;5.10;;;3.30;;
43042;SDS011;28667;50.758;6.096;2023-06-22T03:57:55;7.47;;;3.90;;
43042;SDS011;28667;50.758;6.096;2023-06-22T04:00:25;5.38;;;2.83;;
43042;SDS011;28667;50.758;6.096;2023-06-22T04:02:50;6.82;;;3.72;;
43042;SDS011;28667;50.758;6.096;2023-06-22T04:05:16;7.60;;;3.45;;
43042;SDS011;28667;50.758;6.096;2023-06-22T04:07:45;7.50;;;3.70;;
43042;SDS011;28667;50.758;6.096;2023-06-22T04:10:10;10.80;;;4.68;;
43042;SDS011;28667;50.758;6.096;2023-06-22T04:12:36;7.53;;;4.30;;
43042;SDS011;28667;50.758;6.096;2023-06-22T04:15:02;2.97;;;2.08;;
43042;SDS011;28667;50.758;6.096;2023-06-22T04:17:28;2.53;;;2.25;;
43042;SDS011;28667;50.758;6.096;2023-06-22T04:19:54;4.07;;;3.20;;
43042;SDS011;28667;50.758;6.096;2023-06-22T04:22:19;7.10;;;3.50;;
43042;SDS011;28667;50.758;6.096;2023-06-22T04:24:45;6.60;;;3.40;;
43042;SDS011;28667;50.758;6.096;2023-06-22T04:27:11;4.03;;;3.17;;
43042;SDS011;28667;50.758;6.096;2023-06-22T04:29:37;2.65;;;2.40;;
43042;SDS011;28667;50.758;6.096;2023-06-22T04:32:03;4.43;;;3.15;;
43042;SDS011;28667;50.758;6.096;2023-06-22T04:34:30;6.60;;;3.42;;
43042;SDS011;28667;50.758;6.096;2023-06-22T04:36:56;4.68;;;2.25;;
43042;SDS011;28667;50.758;6.096;2023-06-22T04:39:22;3.30;;;2.13;;
43042;SDS011;28667;50.758;6.096;2023-06-22T04:41:49;7.60;;;3.30;;
43042;SDS011;28667;50.758;6.096;2023-06-22T04:44:16;5.75;;;2.90;;
43042;SDS011;28667;50.758;6.096;2023-06-22T04:46:56;3.08;;;2.72;;
43042;SDS011;28667;50.758;6.096;2023-06-22T04:49:33;4.25;;;2.53;;
43042;SDS011;28667;50.758;6.096;2023-06-22T04:52:09;7.10;;;3.08;;
43042;SDS011;28667;50.758;6.096;2023-06-22T04:54:36;3.60;;;2.72;;
43042;SDS011;28667;50.758;6.096;2023-06-22T04:57:03;6.88;;;3.45;;
43042;SDS011;28667;50.758;6.096;2023-06-22T04:59:35;6.72;;;3.80;;
43042;SDS011;28667;50.758;6.096;2023-06-22T05:02:01;8.35;;;3.80;;
43042;SDS011;28667;50.758;6.096;2023-06-22T05:04:28;6.53;;;3.97;;
43042;SDS011;28667;50.758;6.096;2023-06-22T05:06:58;5.15;;;3.55;;
43042;SDS011;28667;50.758;6.096;2023-06-22T05:09:25;6.10;;;3.63;;
43042;SDS011;28667;50.758;6.096;2023-06-22T05:11:51;6.25;;;3.75;;
43042;SDS011;28667;50.758;6.096;2023-06-22T05:14:17;9.13;;;4.25;;
43042;SDS011;28667;50.758;6.096;2023-06-22T05:16:44;7.32;;;4.63;;
43042;SDS011;28667;50.758;6.096;2023-06-22T05:19:11;5.30;;;3.03;;
43042;SDS011;28667;50.758;6.096;2023-06-22T05:21:37;7.90;;;3.67;;
43042;SDS011;28667;50.758;6.096;2023-06-22T05:24:03;3.47;;;3.00;;
43042;SDS011;28667;50.758;6.096;2023-06-22T05:26:30;5.22;;;3.45;;
43042;SDS011;28667;50.758;6.096;2023-06-22T05:28:57;6.55;;;3.75;;
43042;SDS011;28667;50.758;6.096;2023-06-22T05:31:24;8.15;;;3.83;;
43042;SDS011;28667;50.758;6.096;2023-06-22T05:33:51;4.82;;;3.22;;
43042;SDS011;28667;50.758;6.096;2023-06-22T05:36:17;3.90;;;2.85;;
43042;SDS011;28667;50.758;6.096;2023-06-22T05:38:50;6.85;;;4.05;;
43042;SDS011;28667;50.758;6.096;2023-06-22T05:41:16;5.90;;;3.42;;
43042;SDS011;28667;50.758;6.096;2023-06-22T05:43:41;6.47;;;3.05;;
43042;SDS011;28667;50.758;6.096;2023-06-22T05:46:07;3.15;;;2.58;;
43042;SDS011;28667;50.758;6.096;2023-06-22T05:48:33;4.38;;;2.75;;
43042;SDS011;28667;50.758;6.096;2023-06-22T05:50:59;3.88;;;2.88;;
43042;SDS011;28667;50.758;6.096;2023-06-22T05:53:24;9.93;;;4.88;;
43042;SDS011;28667;50.758;6.096;2023-06-22T05:55:50;5.03;;;3.70;;
43042;SDS011;28667;50.758;6.096;2023-06-22T05:58:16;6.03;;;3.90;;
43042;SDS011;28667;50.758;6.096;2023-06-22T06:00:42;6.93;;;4.13;;
43042;SDS011;28667;50.758;6.096;2023-06-22T06:03:08;10.07;;;4.38;;
43042;SDS011;28667;50.758;6.096;2023-06-22T06:05:35;6.10;;;3.28;;
43042;SDS011;28667;50.758;6.096;2023-06-22T06:08:03;7.60;;;4.20;;
43042;SDS011;28667;50.758;6.096;2023-06-22T06:10:31;4.82;;;3.00;;
43042;SDS011;28667;50.758;6.096;2023-06-22T06:12:57;12.38;;;4.47;;
43042;SDS011;28667;50.758;6.096;2023-06-22T06:15:23;9.23;;;4.40;;
43042;SDS011;28667;50.758;6.096;2023-06-22T06:17:49;7.43;;;3.80;;
43042;SDS011;28667;50.758;6.096;2023-06-22T06:20:18;4.05;;;2.95;;
43042;SDS011;28667;50.758;6.096;2023-06-22T06:22:45;5.63;;;2.35;;
43042;SDS011;28667;50.758;6.096;2023-06-22T06:25:12;6.68;;;4.32;;
43042;SDS011;28667;50.758;6.096;2023-06-22T06:27:47;5.05;;;4.05;;
43042;SDS011;28667;50.758;6.096;2023-06-22T06:30:15;5.03;;;2.78;;
43042;SDS011;28667;50.758;6.096;2023-06-22T06:32:42;7.50;;;3.00;;
43042;SDS011;28667;50.758;6.096;2023-06-22T06:35:10;4.50;;;2.25;;
43042;SDS011;28667;50.758;6.096;2023-06-22T06:37:38;3.22;;;2.50;;
43042;SDS011;28667;50.758;6.096;2023-06-22T06:40:06;4.40;;;2.15;;
43042;SDS011;28667;50.758;6.096;2023-06-22T06:42:39;7.53;;;3.17;;
43042;SDS011;28667;50.758;6.096;2023-06-22T06:45:17;3.45;;;2.35;;
43042;SDS011;28667;50.758;6.096;2023-06-22T06:47:50;3.15;;;2.50;;
43042;SDS011;28667;50.758;6.096;2023-06-22T06:50:16;6.25;;;2.45;;
43042;SDS011;28667;50.758;6.096;2023-06-22T06:52:43;6.35;;;5.00;;
43042;SDS011;28667;50.758;6.096;2023-06-22T06:55:09;10.93;;;3.90;;
43042;SDS011;28667;50.758;6.096;2023-06-22T06:57:40;5.82;;;3.45;;
43042;SDS011;28667;50.758;6.096;2023-06-22T07:00:10;5.93;;;3.33;;
43042;SDS011;28667;50.758;6.096;2023-06-22T07:02:42;8.57;;;4.65;;
43042;SDS011;28667;50.758;6.096;2023-06-22T07:05:09;12.10;;;3.72;;
43042;SDS011;28667;50.758;6.096;2023-06-22T07:07:35;7.30;;;4.75;;
43042;SDS011;28667;50.758;6.096;2023-06-22T07:10:01;14.85;;;5.60;;
43042;SDS011;28667;50.758;6.096;2023-06-22T07:12:28;7.43;;;3.08;;
43042;SDS011;28667;50.758;6.096;2023-06-22T07:14:56;7.80;;;4.70;;
43042;SDS011;28667;50.758;6.096;2023-06-22T07:17:28;5.70;;;3.87;;
43042;SDS011;28667;50.758;6.096;2023-06-22T07:19:54;6.53;;;4.25;;
43042;SDS011;28667;50.758;6.096;2023-06-22T07:22:20;6.28;;;4.00;;
43042;SDS011;28667;50.758;6.096;2023-06-22T07:24:45;9.35;;;5.00;;
43042;SDS011;28667;50.758;6.096;2023-06-22T07:27:11;7.15;;;3.97;;
43042;SDS011;28667;50.758;6.096;2023-06-22T07:29:37;8.77;;;4.95;;
43042;SDS011;28667;50.758;6.096;2023-06-22T07:32:05;8.23;;;4.90;;
43042;SDS011;28667;50.758;6.096;2023-06-22T07:34:32;6.85;;;5.25;;
43042;SDS011;28667;50.758;6.096;2023-06-22T07:36:58;10.10;;;5.20;;
43042;SDS011;28667;50.758;6.096;2023-06-22T07:39:24;7.88;;;4.43;;
43042;SDS011;28667;50.758;6.096;2023-06-22T07:41:51;10.07;;;5.63;;
43042;SDS011;28667;50.758;6.096;2023-06-22T07:44:17;7.70;;;4.65;;
43042;SDS011;28667;50.758;6.096;2023-06-22T07:46:43;6.50;;;3.50;;
43042;SDS011;28667;50.758;6.096;2023-06-22T07:49:09;10.20;;;5.93;;
43042;SDS011;28667;50.758;6.096;2023-06-22T07:51:34;8.23;;;4.47;;
43042;SDS011;28667;50.758;6.096;2023-06-22T07:54:00;11.18;;;5.35;;
43042;SDS011;28667;50.758;6.096;2023-06-22T07:56:26;7.72;;;5.97;;
43042;SDS011;28667;50.758;6.096;2023-06-22T07:58:52;6.80;;;3.95;;
43042;SDS011;28667;50.758;6.096;2023-06-22T08:01:18;7.05;;;4.30;;
43042;SDS011;28667;50.758;6.096;2023-06-22T08:03:47;7.22;;;4.88;;
43042;SDS011;28667;50.758;6.096;2023-06-22T08:06:13;8.60;;;5.57;;
43042;SDS011;28667;50.758;6.096;2023-06-22T08:08:39;9.00;;;4.97;;
43042;SDS011;28667;50.758;6.096;2023-06-22T08:11:05;8.07;;;4.30;;
43042;SDS011;28667;50.758;6.096;2023-06-22T08:13:31;8.40;;;4.07;;
43042;SDS011;28667;50.758;6.096;2023-06-22T08:15:57;7.75;;;4.50;;
43042;SDS011;28667;50.758;6.096;2023-06-22T08:18:23;7.90;;;6.50;;
43042;SDS011;28667;50.758;6.096;2023-06-22T08:20:48;9.70;;;5.40;;
43042;SDS011;28667;50.758;6.096;2023-06-22T08:23:15;6.40;;;4.90;;
43042;SDS011;28667;50.758;6.096;2023-06-22T08:25:40;6.65;;;4.63;;
43042;SDS011;28667;50.758;6.096;2023-06-22T08:28:06;9.13;;;5.40;;
43042;SDS011;28667;50.758;6.096;2023-06-22T08:30:32;7.50;;;4.78;;
43042;SDS011;28667;50.758;6.096;2023-06-22T08:32:58;6.28;;;3.80;;
43042;SDS011;28667;50.758;6.096;2023-06-22T08:35:24;8.45;;;4.60;;
43042;SDS011;28667;50.758;6.096;2023-06-22T08:37:50;8.30;;;5.45;;
43042;SDS011;28667;50.758;6.096;2023-06-22T08:40:18;5.75;;;4.88;;
43042;SDS011;28667;50.758;6.096;2023-06-22T08:42:48;8.98;;;5.63;;
43042;SDS011;28667;50.758;6.096;2023-06-22T08:45:14;10.27;;;4.88;;
43042;SDS011;28667;50.758;6.096;2023-06-22T08:47:40;11.55;;;6.30;;
43042;SDS011;28667;50.758;6.096;2023-06-22T08:50:07;10.48;;;6.13;;
43042;SDS011;28667;50.758;6.096;2023-06-22T08:52:35;6.65;;;4.72;;
43042;SDS011;28667;50.758;6.096;2023-06-22T08:55:01;11.48;;;5.32;;
43042;SDS011;28667;50.758;6.096;2023-06-22T08:57:27;7.13;;;5.57;;
43042;SDS011;28667;50.758;6.096;2023-06-22T08:59:53;8.85;;;5.78;;
43042;SDS011;28667;50.758;6.096;2023-06-22T09:02:19;9.02;;;5.10;;
43042;SDS011;28667;50.758;6.096;2023-06-22T09:04:48;8.48;;;4.57;;
43042;SDS011;28667;50.758;6.096;2023-06-22T09:07:14;5.38;;;4.57;;
43042;SDS011;28667;50.758;6.096;2023-06-22T09:09:47;9.35;;;4.80;;
43042;SDS011;28667;50.758;6.096;2023-06-22T09:12:13;9.10;;;4.57;;
43042;SDS011;28667;50.758;6.096;2023-06-22T09:14:38;8.95;;;5.97;;
43042;SDS011;28667;50.758;6.096;2023-06-22T09:17:04;11.50;;;5.60;;
43042;SDS011;28667;50.758;6.096;2023-06-22T09:19:30;6.85;;;4.20;;
43042;SDS011;28667;50.758;6.096;2023-06-22T09:21:56;9.95;;;3.92;;
43042;SDS011;28667;50.758;6.096;2023-06-22T09:24:22;8.40;;;4.20;;
43042;SDS011;28667;50.758;6.096;2023-06-22T09:26:48;7.72;;;4.88;;
43042;SDS011;28667;50.758;6.096;2023-06-22T09:29:13;9.88;;;5.57;;
43042;SDS011;28667;50.758;6.096;2023-06-22T09:31:39;7.68;;;5.07;;
43042;SDS011;28667;50.758;6.096;2023-06-22T09:34:06;10.88;;;6.35;;
43042;SDS011;28667;50.758;6.096;2023-06-22T09:36:31;10.88;;;5.70;;
43042;SDS011;28667;50.758;6.096;2023-06-22T09:38:57;7.80;;;4.65;;
43042;SDS011;28667;50.758;6.096;2023-06-22T09:41:24;10.18;;;4.85;;
43042;SDS011;28667;50.758;6.096;2023-06-22T09:43:50;6.05;;;3.72;;
43042;SDS011;28667;50.758;6.096;2023-06-22T09:46:16;4.93;;;4.43;;
43042;SDS011;28667;50.758;6.096;2023-06-22T09:48:42;5.30;;;3.92;;
43042;SDS011;28667;50.758;6.096;2023-06-22T09:51:08;4.60;;;3.72;;
43042;SDS011;28667;50.758;6.096;2023-06-22T09:53:33;9.88;;;4.63;;
43042;SDS011;28667;50.758;6.096;2023-06-22T09:56:03;6.38;;;3.90;;
43042;SDS011;28667;50.758;6.096;2023-06-22T09:58:29;6.40;;;4.50;;
43042;SDS011;28667;50.758;6.096;2023-06-22T10:00:54;4.53;;;3.45;;
43042;SDS011;28667;50.758;6.096;2023-06-22T10:03:20;6.95;;;4.15;;
43042;SDS011;28667;50.758;6.096;2023-06-22T10:05:46;5.20;;;4.43;;
43042;SDS011;28667;50.758;6.096;2023-06-22T10:08:12;6.50;;;4.25;;
43042;SDS011;28667;50.758;6.096;2023-06-22T10:10:38;5.50;;;3.75;;
43042;SDS011;28667;50.758;6.096;2023-06-22T10:13:09;5.38;;;4.40;;
43042;SDS011;28667;50.758;6.096;2023-06-22T10:15:36;7.07;;;4.72;;
43042;SDS011;28667;50.758;6.096;2023-06-22T10:18:02;9.52;;;4.75;;
43042;SDS011;28667;50.758;6.096;2023-06-22T10:20:28;10.75;;;6.93;;
43042;SDS011;28667;50.758;6.096;2023-06-22T10:22:54;16.08;;;7.63;;
43042;SDS011;28667;50.758;6.096;2023-06-22T10:25:20;12.05;;;9.10;;
43042;SDS011;28667;50.758;6.096;2023-06-22T10:27:47;13.23;;;8.20;;
43042;SDS011;28667;50.758;6.096;2023-06-22T10:30:13;20.23;;;9.65;;
43042;SDS011;28667;50.758;6.096;2023-06-22T10:32:40;12.48;;;8.10;;
43042;SDS011;28667;50.758;6.096;2023-06-22T10:35:08;15.00;;;9.38;;
43042;SDS011;28667;50.758;6.096;2023-06-22T10:37:36;12.45;;;8.20;;
43042;SDS011;28667;50.758;6.096;2023-06-22T10:40:02;13.77;;;9.50;;
43042;SDS011;28667;50.758;6.096;2023-06-22T10:42:29;18.17;;;10.02;;
43042;SDS011;28667;50.758;6.096;2023-06-22T10:44:55;13.48;;;8.57;;
43042;SDS011;28667;50.758;6.096;2023-06-22T10:47:20;17.27;;;9.73;;
43042;SDS011;28667;50.758;6.096;2023-06-22T10:49:46;13.95;;;8.85;;
43042;SDS011;28667;50.758;6.096;2023-06-22T10:52:12;13.18;;;9.63;;
43042;SDS011;28667;50.758;6.096;2023-06-22T10:54:38;14.25;;;9.70;;
43042;SDS011;28667;50.758;6.096;2023-06-22T10:57:04;14.80;;;10.52;;
43042;SDS011;28667;50.758;6.096;2023-06-22T10:59:30;17.23;;;10.05;;
43042;SDS011;28667;50.758;6.096;2023-06-22T11:01:55;12.77;;;8.07;;
43042;SDS011;28667;50.758;6.096;2023-06-22T11:04:22;14.65;;;9.85;;
43042;SDS011;28667;50.758;6.096;2023-06-22T11:06:48;13.20;;;10.45;;
43042;SDS011;28667;50.758;6.096;2023-06-22T11:09:14;15.52;;;9.57;;
43042;SDS011;28667;50.758;6.096;2023-06-22T11:11:49;14.15;;;8.35;;
43042;SDS011;28667;50.758;6.096;2023-06-22T11:14:18;20.98;;;12.40;;
43042;SDS011;28667;50.758;6.096;2023-06-22T11:16:45;22.48;;;11.13;;
43042;SDS011;28667;50.758;6.096;2023-06-22T11:19:11;19.83;;;12.77;;
43042;SDS011;28667;50.758;6.096;2023-06-22T11:21:37;19.83;;;11.48;;
43042;SDS011;28667;50.758;6.096;2023-06-22T11:24:03;14.07;;;9.30;;
43042;SDS011;28667;50.758;6.096;2023-06-22T11:26:29;14.40;;;9.43;;
43042;SDS011;28667;50.758;6.096;2023-06-22T11:28:57;19.27;;;11.07;;
43042;SDS011;28667;50.758;6.096;2023-06-22T11:31:23;12.60;;;9.23;;
43042;SDS011;28667;50.758;6.096;2023-06-22T11:33:49;13.80;;;9.20;;
43042;SDS011;28667;50.758;6.096;2023-06-22T11:36:15;12.85;;;8.60;;
43042;SDS011;28667;50.758;6.096;2023-06-22T11:38:43;13.77;;;8.23;;
43042;SDS011;28667;50.758;6.096;2023-06-22T11:41:09;7.40;;;6.20;;
43042;SDS011;28667;50.758;6.096;2023-06-22T11:43:35;8.18;;;6.35;;
43042;SDS011;28667;50.758;6.096;2023-06-22T11:46:02;7.85;;;6.22;;
43042;SDS011;28667;50.758;6.096;2023-06-22T11:48:29;13.80;;;8.63;;
43042;SDS011;28667;50.758;6.096;2023-06-22T11:50:55;11.02;;;7.78;;
43042;SDS011;28667;50.758;6.096;2023-06-22T11:53:21;12.10;;;7.90;;
43042;SDS011;28667;50.758;6.096;2023-06-22T11:55:49;11.50;;;7.95;;
43042;SDS011;28667;50.758;6.096;2023-06-22T11:58:15;9.55;;;6.90;;
43042;SDS011;28667;50.758;6.096;2023-06-22T12:00:40;10.93;;;7.30;;
43042;SDS011;28667;50.758;6.096;2023-06-22T12:03:07;8.63;;;6.03;;
43042;SDS011;28667;50.758;6.096;2023-06-22T12:05:33;11.32;;;8.13;;
43042;SDS011;28667;50.758;6.096;2023-06-22T12:07:59;8.98;;;7.00;;
43042;SDS011;28667;50.758;6.096;2023-06-22T12:10:25;9.93;;;6.50;;
43042;SDS011;28667;50.758;6.096;2023-06-22T12:12:51;13.07;;;8.55;;
43042;SDS011;28667;50.758;6.096;2023-06-22T12:15:17;9.25;;;7.30;;
43042;SDS011;28667;50.758;6.096;2023-06-22T12:17:42;10.70;;;6.82;;
43042;SDS011;28667;50.758;6.096;2023-06-22T12:20:08;11.50;;;7.35;;
43042;SDS011;28667;50.758;6.096;2023-06-22T12:22:35;11.30;;;7.47;;
43042;SDS011;28667;50.758;6.096;2023-06-22T12:25:03;11.10;;;7.65;;
43042;SDS011;28667;50.758;6.096;2023-06-22T12:27:29;9.02;;;6.93;;
43042;SDS011;28667;50.758;6.096;2023-06-22T12:29:55;12.27;;;8.88;;
43042;SDS011;28667;50.758;6.096;2023-06-22T12:32:21;12.73;;;8.93;;
43042;SDS011;28667;50.758;6.096;2023-06-22T12:34:47;11.20;;;7.05;;
43042;SDS011;28667;50.758;6.096;2023-06-22T12:37:13;12.70;;;8.57;;
43042;SDS011;28667;50.758;6.096;2023-06-22T12:39:41;11.73;;;7.53;;
43042;SDS011;28667;50.758;6.096;2023-06-22T12:42:07;12.18;;;6.22;;
43042;SDS011;28667;50.758;6.096;2023-06-22T12:44:34;10.30;;;6.75;;
43042;SDS011;28667;50.758;6.096;2023-06-22T12:47:00;7.93;;;7.10;;
43042;SDS011;28667;50.758;6.096;2023-06-22T12:49:26;7.80;;;6.60;;
43042;SDS011;28667;50.758;6.096;2023-06-22T12:51:52;10.73;;;7.63;;
43042;SDS011;28667;50.758;6.096;2023-06-22T12:54:18;10.55;;;7.80;;
43042;SDS011;28667;50.758;6.096;2023-06-22T12:56:43;12.43;;;7.97;;
43042;SDS011;28667;50.758;6.096;2023-06-22T12:59:10;13.93;;;8.80;;
43042;SDS011;28667;50.758;6.096;2023-06-22T13:01:36;15.15;;;9.50;;
43042;SDS011;28667;50.758;6.096;2023-06-22T13:04:02;13.80;;;9.13;;
43042;SDS011;28667;50.758;6.096;2023-06-22T13:06:28;16.67;;;10.57;;
43042;SDS011;28667;50.758;6.096;2023-06-22T13:08:54;11.63;;;8.45;;
43042;SDS011;28667;50.758;6.096;2023-06-22T13:11:20;14.02;;;8.82;;
43042;SDS011;28667;50.758;6.096;2023-06-22T13:13:45;13.88;;;8.73;;
43042;SDS011;28667;50.758;6.096;2023-06-22T13:16:11;12.43;;;8.27;;
43042;SDS011;28667;50.758;6.096;2023-06-22T13:18:37;12.75;;;9.07;;
43042;SDS011;28667;50.758;6.096;2023-06-22T13:21:03;13.32;;;8.27;;
43042;SDS011;28667;50.758;6.096;2023-06-22T13:23:29;12.43;;;8.60;;
43042;SDS011;28667;50.758;6.096;2023-06-22T13:25:57;13.80;;;8.43;;
43042;SDS011;28667;50.758;6.096;2023-06-22T13:28:23;12.65;;;7.70;;
43042;SDS011;28667;50.758;6.096;2023-06-22T13:30:49;13.00;;;8.15;;
43042;SDS011;28667;50.758;6.096;2023-06-22T13:33:15;13.13;;;9.13;;
43042;SDS011;28667;50.758;6.096;2023-06-22T13:35:41;14.95;;;9.38;;
43042;SDS011;28667;50.758;6.096;2023-06-22T13:38:08;13.10;;;7.55;;
43042;SDS011;28667;50.758;6.096;2023-06-22T13:40:34;14.23;;;9.73;;
43042;SDS011;28667;50.758;6.096;2023-06-22T13:43:00;14.80;;;10.13;;
43042;SDS011;28667;50.758;6.096;2023-06-22T13:45:26;15.60;;;9.75;;
43042;SDS011;28667;50.758;6.096;2023-06-22T13:47:52;13.77;;;9.75;;
43042;SDS011;28667;50.758;6.096;2023-06-22T13:50:18;12.60;;;7.97;;
43042;SDS011;28667;50.758;6.096;2023-06-22T13:52:44;17.90;;;10.88;;
43042;SDS011;28667;50.758;6.096;2023-06-22T13:55:09;19.45;;;11.52;;
43042;SDS011;28667;50.758;6.096;2023-06-22T13:57:35;18.65;;;11.27;;
43042;SDS011;28667;50.758;6.096;2023-06-22T14:00:03;18.85;;;11.60;;
43042;SDS011;28667;50.758;6.096;2023-06-22T14:02:39;18.45;;;11.45;;
43042;SDS011;28667;50.758;6.096;2023-06-22T14:05:05;21.55;;;12.23;;
43042;SDS011;28667;50.758;6.096;2023-06-22T14:07:31;18.52;;;11.93;;
43042;SDS011;28667;50.758;6.096;2023-06-22T14:09:57;23.52;;;13.15;;
43042;SDS011;28667;50.758;6.096;2023-06-22T14:12:23;20.50;;;12.20;;
43042;SDS011;28667;50.758;6.096;2023-06-22T14:14:49;17.60;;;11.23;;
43042;SDS011;28667;50.758;6.096;2023-06-22T14:17:15;18.92;;;12.40;;
43042;SDS011;28667;50.758;6.096;2023-06-22T14:19:41;21.05;;;11.55;;
43042;SDS011;28667;50.758;6.096;2023-06-22T14:22:06;18.15;;;12.07;;
43042;SDS011;28667;50.758;6.096;2023-06-22T14:24:32;21.70;;;13.98;;
43042;SDS011;28667;50.758;6.096;2023-06-22T14:26:58;19.23;;;13.35;;
43042;SDS011;28667;50.758;6.096;2023-06-22T14:29:24;25.10;;;14.32;;
43042;SDS011;28667;50.758;6.096;2023-06-22T14:31:51;15.80;;;9.75;;
43042;SDS011;28667;50.758;6.096;2023-06-22T14:34:16;24.80;;;14.10;;
43042;SDS011;28667;50.758;6.096;2023-06-22T14:36:42;27.42;;;15.90;;
43042;SDS011;28667;50.758;6.096;2023-06-22T14:39:09;25.75;;;14.73;;
43042;SDS011;28667;50.758;6.096;2023-06-22T14:41:35;27.08;;;15.95;;
43042;SDS011;28667;50.758;6.096;2023-06-22T14:44:01;24.08;;;14.60;;
43042;SDS011;28667;50.758;6.096;2023-06-22T14:46:26;20.77;;;12.88;;
43042;SDS011;28667;50.758;6.096;2023-06-22T14:48:52;26.35;;;15.25;;